Latest Weather Observations for Ballarat

IDV60801

Issued at 3:52 am EST Thursday 23 May 2024 (issued every 10 minutes, with the page automatically refreshed every 10 minutes)

About weather observations | Map of weather stations | Latest weather observations for VIC | Other Formats
Station Details ID: 089002 Name: BALLARAT AERODROME Lat: -37.51 Lon: 143.79 Height: 435.2 m
Data from the previous 72 hours. | See also: Recent months at Ballarat
Date/Time
EST
Temp
°C
App
Temp
°C
Dew
Point
°C
Rel
Hum
%
Delta-T
°C
Wind Press
QNH
hPa
Press
MSL
hPa
Rain since
9am
mm
Dir  Spd
km/h
Gust
km/h
Spd
kts
Gust
kts
23/03:30am 6.6 4.4 6.3 98 0.1 E 7 13 4 7 1027.1 1027.5 0.0
23/03:13am 5.5 3.3 5.1 97 0.2 E 6 9 3 5 1027.2 1027.6 0.0
23/03:00am 5.3 3.0 4.9 97 0.2 ESE 6 7 3 4 1027.2 1027.6 0.0
23/02:30am 6.0 3.3 5.4 96 0.3 SSE 9 11 5 6 1027.3 1027.7 0.0
23/02:17am 6.8 4.2 6.2 96 0.3 S 9 9 5 5 1027.3 1027.7 0.0
23/02:00am 7.4 5.3 6.8 96 0.3 SSE 7 7 4 4 1027.3 1027.7 0.0
23/01:30am 7.1 5.0 6.5 96 0.3 SSE 7 9 4 5 1027.3 1027.7 0.0
23/01:13am 8.1 6.2 7.5 96 0.3 S 7 9 4 5 1027.5 1027.9 0.0
23/01:00am 8.2 6.5 7.6 96 0.3 SSW 6 7 3 4 1027.5 1027.9 0.0
23/12:30am 7.8 6.0 7.2 96 0.3 ESE 6 7 3 4 1027.5 1027.9 0.0
23/12:29am 7.8 6.0 7.2 96 0.3 ESE 6 7 3 4 1027.5 1027.9 0.0
23/12:00am 7.1 5.8 6.2 94 0.4 S 2 7 1 4 1027.5 1027.9 0.0
 
Date/Time
EST
Temp
°C
App
Temp
°C
Dew
Point
°C
Rel
Hum
%
Delta-T
°C
Wind Press
QNH
hPa
Press
MSL
hPa
Rain since
9am
mm
Dir  Spd
km/h
Gust
km/h
Spd
kts
Gust
kts
22/11:30pm 7.6 6.1 6.9 95 0.3 SSW 4 9 2 5 1027.5 1027.9 0.0
22/11:00pm 8.4 6.5 7.6 95 0.4 S 7 11 4 6 1027.4 1027.8 0.0
22/10:45pm 8.5 6.6 7.7 95 0.4 S 7 11 4 6 1027.6 1028.0 0.0
22/10:30pm 8.3 6.1 7.7 96 0.3 S 9 11 5 6 1027.7 1028.1 0.0
22/10:00pm 7.4 5.5 6.7 95 0.3 SSE 6 7 3 4 1027.7 1028.1 0.0
22/09:30pm 7.6 5.5 6.7 94 0.4 SSE 7 11 4 6 1027.6 1028.0 0.0
22/09:00pm 8.8 6.6 7.9 94 0.4 SSW 9 13 5 7 1027.7 1028.1 0.0
22/08:39pm 9.0 6.8 7.9 93 0.5 SSW 9 11 5 6 1027.6 1028.0 0.0
22/08:30pm 9.2 7.1 8.1 93 0.5 SSW 9 13 5 7 1027.6 1028.0 0.0
22/08:00pm 9.0 6.8 7.8 92 0.6 SSW 9 13 5 7 1027.6 1028.0 0.0
22/07:30pm 9.4 6.5 8.0 91 0.7 SSW 13 17 7 9 1027.4 1027.8 0.0
22/07:00pm 9.6 7.3 7.4 86 1.1 S 9 11 5 6 1027.4 1027.8 0.0
22/06:30pm 10.0 7.7 7.3 83 1.3 S 9 13 5 7 1027.3 1027.7 0.0
22/06:00pm 10.4 8.4 7.1 80 1.6 S 7 11 4 6 1027.1 1027.5 0.0
22/05:30pm 10.8 8.5 7.3 79 1.7 SSW 9 13 5 7 1026.9 1027.2 0.0
22/05:00pm 11.0 8.7 7.3 78 1.8 SSW 9 15 5 8 1026.9 1027.2 0.0
22/04:30pm 11.3 8.3 7.6 78 1.8 S 13 17 7 9 1026.7 1027.0 0.0
22/04:00pm 11.5 8.4 7.2 75 2.1 SSW 13 15 7 8 1026.7 1027.0 0.0
22/03:30pm 11.6 8.6 7.5 76 2.0 SSW 13 19 7 10 1026.7 1027.0 0.0
22/03:00pm 11.6 8.9 7.3 75 2.1 SSW 11 15 6 8 1026.6 1026.9 0.0
22/02:30pm 11.9 8.6 8.0 77 2.0 S 15 20 8 11 1026.6 1026.9 0.0
22/02:00pm 11.8 8.5 7.9 77 1.9 S 15 19 8 10 1026.8 1027.1 0.0
22/01:30pm 11.9 8.5 7.6 75 2.1 SSW 15 20 8 11 1027.0 1027.3 0.0
22/01:00pm 12.9 10.2 9.0 77 2.0 SW 13 20 7 11 1027.1 1027.5 0.0
22/12:30pm 12.4 9.9 8.1 75 2.2 SSW 11 19 6 10 1027.5 1027.9 0.0
22/12:07pm 11.0 8.2 8.4 84 1.3 SW 13 17 7 9 1027.9 1028.2 0.0
22/12:00pm 10.9 8.2 8.8 87 1.1 WSW 13 17 7 9 1028.0 1028.3 0.0
22/11:30am 9.7 6.9 8.6 93 0.6 WSW 13 17 7 9 1028.4 1028.7 0.0
22/11:00am 8.2 5.9 7.4 95 0.4 WSW 9 13 5 7 1028.8 1029.1 0.0
22/10:30am 8.2 6.4 7.9 98 0.1 W 7 9 4 5 1028.7 1029.0 0.0
22/10:23am 8.0 7.1 7.7 98 0.1 NNW 2 7 1 4 1028.6 1028.9 0.0
22/10:00am 6.4 4.7 6.1 98 0.1 W 4 7 2 4 1028.7 1029.0 0.0
22/09:44am 6.0 3.7 5.7 98 0.1 W 7 9 4 5 1028.7 1029.0 0.0
22/09:43am 6.0 3.7 5.6 97 0.2 W 7 9 4 5 1028.7 1029.0 0.0
22/09:30am 5.9 3.2 5.6 98 0.1 WSW 9 11 5 6 1028.8 1029.1 0.0
22/09:00am 4.6 2.9 4.2 97 0.2 WSW 2 6 1 3 1028.6 1028.9 0.0
22/08:30am 3.7 1.1 3.3 97 0.2 W 6 9 3 5 1028.3 1028.6 0.0
22/08:00am 3.9 2.1 3.5 97 0.2 S 2 7 1 4 1028.3 1028.6 0.0
22/07:30am 4.1 1.6 3.5 96 0.3 SSE 6 6 3 3 1028.0 1028.3 0.0
22/07:00am 4.5 1.8 3.9 96 0.3 SSE 7 9 4 5 1028.0 1028.3 0.0
22/06:36am 4.9 1.9 4.2 95 0.3 S 9 9 5 5 1028.0 1028.3 0.0
22/06:30am 5.7 2.9 5.1 96 0.3 S 9 13 5 7 1028.0 1028.3 0.0
22/06:09am 5.6 2.7 4.9 95 0.3 SSW 9 9 5 5 1027.7 1028.1 0.0
22/06:00am 5.8 3.0 5.1 95 0.3 SSW 9 11 5 6 1027.7 1028.1 0.0
22/05:30am 6.6 3.6 5.9 95 0.3 S 11 15 6 8 1027.5 1027.9 0.0
22/05:00am 6.3 2.8 5.6 95 0.3 S 13 17 7 9 1027.3 1027.7 0.0
22/04:49am 6.1 2.5 5.2 94 0.4 S 13 17 7 9 1027.2 1027.6 0.0
22/04:30am 6.5 3.5 5.8 95 0.3 S 11 15 6 8 1027.2 1027.6 0.0
22/04:00am 7.1 3.7 5.9 92 0.5 S 13 15 7 8 1027.2 1027.6 0.0
22/03:30am 7.1 3.3 5.6 90 0.7 S 15 19 8 10 1027.4 1027.8 0.0
22/03:00am 8.1 4.0 6.2 88 0.9 SSE 17 30 9 16 1027.4 1027.8 0.0
22/02:30am 7.6 3.1 6.1 90 0.7 SSE 19 26 10 14 1027.4 1027.8 0.0
22/02:00am 7.3 3.2 6.1 92 0.6 SSE 17 26 9 14 1027.6 1028.0 0.0
22/01:30am 6.4 1.6 4.9 90 0.7 SSE 19 24 10 13 1027.9 1028.2 0.0
22/01:27am 6.3 1.5 4.8 90 0.7 SSE 19 20 10 11 1027.9 1028.2 0.0
22/01:00am 5.7 1.6 4.3 91 0.6 SSE 15 19 8 10 1028.2 1028.5 0.0
22/12:30am 5.8 1.3 4.4 91 0.6 SSE 17 24 9 13 1028.3 1028.6 0.0
22/12:00am 5.7 0.6 4.0 89 0.7 SSE 20 24 11 13 1028.5 1028.8 0.0
 
Date/Time
EST
Temp
°C
App
Temp
°C
Dew
Point
°C
Rel
Hum
%
Delta-T
°C
Wind Press
QNH
hPa
Press
MSL
hPa
Rain since
9am
mm
Dir  Spd
km/h
Gust
km/h
Spd
kts
Gust
kts
21/11:30pm 6.0 2.3 4.3 89 0.7 SSE 13 15 7 8 1028.9 1029.2 0.0
21/11:00pm 6.4 2.7 4.4 87 0.9 SSE 13 17 7 9 1029.2 1029.6 0.0
21/10:30pm 6.8 3.2 4.8 87 0.9 S 13 17 7 9 1029.2 1029.6 0.0
21/10:00pm 6.6 2.2 4.6 87 0.9 SSE 17 20 9 11 1029.4 1029.8 0.0
21/09:30pm 6.2 1.7 4.4 88 0.8 SSE 17 20 9 11 1029.2 1029.6 0.0
21/09:00pm 5.7 1.9 4.0 89 0.7 S 13 15 7 8 1029.2 1029.6 0.0
21/08:30pm 6.2 2.8 3.9 85 1.0 S 11 15 6 8 1029.2 1029.6 0.0
21/08:00pm 5.7 1.8 3.5 86 0.9 SSE 13 15 7 8 1029.3 1029.7 0.0
21/07:30pm 6.5 2.3 3.8 83 1.2 SSE 15 19 8 10 1029.3 1029.7 0.0
21/07:00pm 7.0 2.8 4.0 81 1.3 SE 15 20 8 11 1029.2 1029.6 0.0
21/06:30pm 7.1 3.3 3.9 80 1.4 SSE 13 17 7 9 1029.2 1029.6 0.0
21/06:00pm 8.3 4.6 4.5 77 1.7 SSE 13 15 7 8 1029.1 1029.5 0.0
21/05:30pm 8.5 3.6 3.9 73 2.1 SSE 19 24 10 13 1028.9 1029.2 0.0
21/05:00pm 9.5 5.0 4.3 70 2.3 SSE 17 24 9 13 1028.8 1029.1 0.0
21/04:30pm 9.6 4.8 4.4 70 2.4 SSE 19 22 10 12 1028.8 1029.1 0.0
21/04:00pm 9.8 4.7 4.2 68 2.5 SSE 20 28 11 15 1028.9 1029.2 0.0
21/03:30pm 9.8 4.7 4.2 68 2.5 SSE 20 26 11 14 1028.9 1029.2 0.0
21/03:00pm 9.7 4.7 4.7 71 2.3 SSE 20 26 11 14 1028.9 1029.2 0.0
21/02:30pm 9.8 5.2 5.4 74 2.1 SSE 19 24 10 13 1028.9 1029.2 0.0
21/02:00pm 9.5 4.6 4.9 73 2.1 SSE 20 26 11 14 1029.1 1029.5 0.0
21/01:30pm 9.6 4.4 5.4 75 2.0 S 22 30 12 16 1029.3 1029.7 0.0
21/01:00pm 9.3 4.7 5.5 77 1.8 SSE 19 24 10 13 1029.6 1030.0 0.0
21/12:30pm 9.3 5.1 5.9 79 1.6 S 17 22 9 12 1030.0 1030.4 0.0
21/12:00pm 8.9 4.7 5.5 79 1.6 S 17 22 9 12 1030.4 1030.7 0.0
21/11:30am 8.8 4.0 5.7 81 1.4 SSE 20 26 11 14 1030.8 1031.1 0.0
21/11:03am 8.8 4.1 5.9 82 1.4 SSE 20 30 11 16 1030.9 1031.2 0.0
21/11:00am 8.8 4.1 5.9 82 1.3 SSE 20 28 11 15 1030.9 1031.2 0.0
21/10:30am 8.6 3.9 6.2 85 1.1 S 20 28 11 15 1030.7 1031.0 0.0
21/10:00am 8.0 3.3 6.1 88 0.9 SSE 20 28 11 15 1030.6 1030.9 0.0
21/09:30am 7.3 3.2 6.2 93 0.5 SSE 17 22 9 12 1030.6 1030.9 0.0
21/09:18am 7.1 2.6 6.2 94 0.4 SSE 19 26 10 14 1030.6 1030.9 0.0
21/09:00am 7.1 3.0 6.4 95 0.3 SSE 17 20 9 11 1030.5 1030.8 0.6
21/08:54am 7.1 3.0 6.2 94 0.4 SSE 17 28 9 15 1030.5 1030.8 0.6
21/08:30am 7.0 2.7 5.3 89 0.8 S 17 26 9 14 1030.3 1030.6 0.6
21/08:28am 7.0 2.7 5.3 89 0.8 S 17 24 9 13 1030.3 1030.6 0.6
21/08:00am 6.3 2.7 4.9 91 0.6 S 13 17 7 9 1029.9 1030.3 0.6
21/07:30am 5.7 2.7 4.2 90 0.7 S 9 11 5 6 1029.6 1030.0 0.6
21/07:00am 6.7 2.3 4.7 87 0.9 SSE 17 20 9 11 1029.4 1029.8 0.6
21/06:30am 6.7 1.9 4.9 88 0.8 SSE 19 24 10 13 1029.3 1029.7 0.6
21/06:00am 6.6 2.4 5.6 93 0.5 SSE 17 24 9 13 1029.4 1029.8 0.6
21/05:45am 6.7 2.9 5.7 93 0.5 SSE 15 22 8 12 1029.3 1029.7 0.6
21/05:30am 6.7 2.5 5.7 93 0.5 SSE 17 22 9 12 1029.1 1029.5 0.6
21/05:00am 6.8 2.6 5.7 93 0.5 SSE 17 22 9 12 1029.0 1029.3 0.6
21/04:30am 6.7 1.5 5.5 92 0.5 SSE 22 33 12 18 1029.0 1029.3 0.6
21/04:00am 6.7 1.2 6.1 96 0.3 SSE 24 30 13 16 1029.0 1029.3 0.6
21/03:33am 6.7 2.1 6.3 97 0.2 SSE 20 28 11 15 1029.2 1029.6 0.4
21/03:30am 6.8 2.2 6.4 97 0.2 SSE 20 26 11 14 1029.2 1029.6 0.4
21/03:00am 6.9 2.9 6.5 97 0.2 S 17 24 9 13 1029.2 1029.6 0.4
21/02:30am 6.7 3.0 6.3 97 0.2 S 15 20 8 11 1029.4 1029.8 0.4
21/02:10am 6.5 2.8 6.1 97 0.2 S 15 20 8 11 1029.4 1029.8 0.4
21/02:00am 6.5 2.8 6.1 97 0.2 S 15 20 8 11 1029.4 1029.8 0.4
21/01:47am 6.5 3.1 5.9 96 0.3 S 13 19 7 10 1029.4 1029.8 0.4
21/01:31am 6.5 2.7 5.9 96 0.3 S 15 20 8 11 1029.4 1029.8 0.4
21/01:30am 6.5 2.7 5.9 96 0.3 S 15 20 8 11 1029.4 1029.8 0.4
21/01:00am 6.2 3.1 5.5 95 0.3 S 11 15 6 8 1029.7 1030.1 0.4
21/12:54am 6.2 3.1 5.5 95 0.3 S 11 15 6 8 1029.7 1030.1 0.4
21/12:46am 6.1 3.0 5.4 95 0.3 S 11 15 6 8 1029.7 1030.1 0.4
21/12:34am 6.3 3.2 5.6 95 0.3 S 11 15 6 8 1029.7 1030.1 0.4
21/12:30am 6.3 3.2 5.6 95 0.3 S 11 15 6 8 1029.7 1030.1 0.4
21/12:00am 6.2 3.4 5.3 94 0.4 S 9 13 5 7 1029.7 1030.1 0.4
 
Date/Time
EST
Temp
°C
App
Temp
°C
Dew
Point
°C
Rel
Hum
%
Delta-T
°C
Wind Press
QNH
hPa
Press
MSL
hPa
Rain since
9am
mm
Dir  Spd
km/h
Gust
km/h
Spd
kts
Gust
kts
20/11:30pm 6.7 3.3 5.7 93 0.5 S 13 15 7 8 1029.8 1030.2 0.4
20/11:00pm 7.5 4.2 6.3 92 0.6 S 13 17 7 9 1029.7 1030.1 0.4
20/10:30pm 7.7 4.4 6.5 92 0.6 S 13 17 7 9 1029.9 1030.3 0.4
20/10:00pm 7.5 4.2 6.3 92 0.6 S 13 17 7 9 1029.9 1030.3 0.4
20/09:30pm 7.6 4.6 6.2 91 0.7 S 11 13 6 7 1029.8 1030.2 0.4
20/09:00pm 8.1 3.7 6.4 89 0.8 SSE 19 24 10 13 1029.6 1030.0 0.4
20/08:30pm 8.7 4.7 6.7 87 1.0 S 17 24 9 13 1029.5 1029.9 0.4
20/08:00pm 8.6 5.6 6.2 85 1.1 S 11 17 6 9 1029.4 1029.8 0.4
20/07:30pm 8.6 5.2 5.9 83 1.3 S 13 17 7 9 1029.3 1029.7 0.4
20/07:00pm 8.8 4.9 5.4 79 1.6 S 15 20 8 11 1029.0 1029.3 0.4
20/06:30pm 9.0 5.2 5.7 80 1.5 S 15 20 8 11 1028.7 1029.0 0.4
20/06:00pm 8.7 5.3 6.0 83 1.3 S 13 19 7 10 1028.3 1028.6 0.4
20/05:30pm 10.3 7.0 6.5 77 1.8 S 13 19 7 10 1028.2 1028.5 0.4
20/05:00pm 10.7 7.5 7.0 78 1.8 SSW 13 19 7 10 1028.1 1028.4 0.2
20/04:30pm 10.4 6.4 6.7 78 1.8 S 17 20 9 11 1027.9 1028.2 0.2
20/04:00pm 11.0 6.7 7.7 80 1.6 SSE 20 26 11 14 1027.6 1028.0 0.2
20/03:30pm 11.3 7.1 7.4 77 1.9 S 19 22 10 12 1027.5 1027.9 0.2
20/03:00pm 11.3 7.1 7.6 78 1.8 S 19 26 10 14 1027.4 1027.8 0.2
20/02:30pm 11.3 7.4 7.2 76 2.0 S 17 24 9 13 1027.3 1027.7 0.2
20/02:00pm 11.5 6.7 7.2 75 2.1 S 22 32 12 17 1027.3 1027.7 0.2
20/01:30pm 11.5 7.6 8.7 83 1.4 S 19 26 10 14 1027.5 1027.9 0.2
20/01:00pm 10.8 5.4 8.2 84 1.3 SSE 26 32 14 17 1027.7 1028.1 0.2
20/12:35pm 10.5 5.6 8.6 88 1.0 SSE 24 35 13 19 1028.0 1028.3 0.2
20/12:30pm 10.4 5.9 8.5 88 1.0 S 22 30 12 16 1028.0 1028.3 0.2
20/12:19pm 10.6 6.3 8.0 84 1.3 SSE 20 26 11 14 1028.0 1028.3 0.2
20/12:15pm 10.4 5.7 7.8 84 1.3 SSE 22 28 12 15 1028.0 1028.3 0.2
20/12:00pm 10.2 5.6 8.1 87 1.0 S 22 28 12 15 1028.2 1028.5 0.2
20/11:33am 10.0 5.3 7.9 87 1.0 SSE 22 28 12 15 1028.4 1028.7 0.2
20/11:30am 10.3 5.8 8.4 88 0.9 SSE 22 28 12 15 1028.4 1028.7 0.2
20/11:20am 9.8 4.8 7.9 88 0.9 S 24 32 13 17 1028.3 1028.6 0.2
20/11:00am 10.0 5.4 8.3 89 0.8 SSE 22 28 12 15 1028.3 1028.6 0.2
20/10:40am 9.5 5.2 7.9 90 0.8 S 20 26 11 14 1028.3 1028.6 0.2
20/10:36am 9.3 5.2 7.9 91 0.7 S 19 26 10 14 1028.3 1028.6 0.2
20/10:30am 9.4 5.4 8.3 93 0.5 S 19 26 10 14 1028.3 1028.6 0.2
20/10:00am 9.2 5.6 8.3 94 0.4 S 17 24 9 13 1027.9 1028.2 0.2
20/09:50am 8.9 5.2 8.1 95 0.4 S 17 20 9 11 1027.9 1028.2 0.2
20/09:32am 8.7 4.6 7.9 95 0.4 S 19 24 10 13 1027.7 1028.1 0.2
20/09:30am 8.9 4.9 8.1 95 0.4 S 19 24 10 13 1027.7 1028.1 0.0
20/09:00am 8.3 4.0 7.7 96 0.3 S 20 28 11 15 1027.5 1027.9 1.0
20/08:30am 8.0 4.2 7.4 96 0.3 S 17 26 9 14 1027.2 1027.6 1.0
20/08:26am 8.1 4.7 7.7 97 0.2 S 15 24 8 13 1027.2 1027.6 1.0
20/08:00am 7.8 4.7 7.4 97 0.2 SSW 13 19 7 10 1026.7 1027.0 1.0
20/07:52am 7.7 4.2 7.3 97 0.2 S 15 24 8 13 1026.6 1026.9 1.0
20/07:30am 7.7 3.8 7.1 96 0.3 S 17 24 9 13 1026.5 1026.8 1.0
20/07:00am 7.8 5.1 7.2 96 0.3 S 11 17 6 9 1026.3 1026.6 1.0
20/06:58am 7.8 5.1 7.4 97 0.2 S 11 17 6 9 1026.2 1026.5 1.0
20/06:38am 7.8 4.7 7.2 96 0.3 SSW 13 17 7 9 1026.1 1026.4 1.0
20/06:30am 7.8 4.3 7.2 96 0.3 S 15 20 8 11 1026.0 1026.3 1.0
20/06:00am 7.7 3.8 7.1 96 0.3 S 17 22 9 12 1025.7 1026.0 1.0
20/05:30am 7.8 3.9 7.1 95 0.3 S 17 24 9 13 1025.5 1025.8 1.0
20/05:00am 7.8 3.9 7.1 95 0.3 SSW 17 24 9 13 1025.0 1025.3 1.0
20/04:30am 7.9 4.0 7.1 95 0.4 SSW 17 24 9 13 1024.9 1025.2 1.0
20/04:00am 7.8 4.3 7.2 96 0.3 SSW 15 24 8 13 1024.8 1025.1 1.0

Other formats

Comma delimited format used in spreadsheet applications
http://www.bom.gov.au/fwo/IDV60801/IDV60801.94852.axf

JavaScript Object Notation format (JSON) in row-major order
http://www.bom.gov.au/fwo/IDV60801/IDV60801.94852.json

Data quality

Most of these data are generated automatically and are frequently updated. Quality checks on data are not normally performed. It is possible for incorrect values to appear. Refer to information at About Latest Weather Observations and please check the disclaimer before using these data.